createdAt,value
2019-02-07T00:00:43.038Z,23.00
2019-02-07T00:03:11.136Z,18.37
2019-02-07T00:05:39.199Z,21.30
2019-02-07T00:08:07.234Z,17.82
2019-02-07T00:10:36.963Z,19.00
2019-02-07T00:13:04.959Z,19.02
2019-02-07T00:15:33.109Z,16.97
2019-02-07T00:18:01.211Z,20.65
2019-02-07T00:20:29.245Z,18.00
2019-02-07T00:22:57.243Z,20.52
2019-02-07T00:25:25.358Z,18.85
2019-02-07T00:27:53.678Z,16.62
2019-02-07T00:30:21.658Z,16.35
2019-02-07T00:32:49.732Z,17.55
2019-02-07T00:35:17.806Z,19.45
2019-02-07T00:37:45.804Z,23.10
2019-02-07T00:40:14.560Z,22.17
2019-02-07T00:42:43.063Z,17.42
2019-02-07T00:45:33.280Z,19.60
2019-02-07T00:48:01.248Z,18.12
2019-02-07T00:50:31.148Z,19.82
2019-02-07T00:52:59.070Z,16.60
2019-02-07T00:55:27.128Z,19.45
2019-02-07T00:57:55.106Z,21.80
2019-02-07T01:00:24.151Z,19.15
2019-02-07T01:02:52.218Z,12.50
2019-02-07T01:05:21.474Z,20.52
2019-02-07T01:07:49.491Z,16.93
2019-02-07T01:10:21.887Z,16.02
2019-02-07T01:12:49.881Z,13.85
2019-02-07T01:15:17.982Z,18.57
2019-02-07T01:17:46.082Z,19.73
2019-02-07T01:20:14.804Z,21.27
2019-02-07T01:22:42.813Z,20.45
2019-02-07T01:25:13.535Z,19.30
2019-02-07T01:27:41.496Z,17.45
2019-02-07T01:30:11.315Z,17.80
2019-02-07T01:32:39.303Z,19.10
2019-02-07T01:35:07.406Z,16.55
2019-02-07T01:37:35.364Z,17.80
2019-02-07T01:40:03.429Z,16.82
2019-02-07T01:42:31.746Z,16.50
2019-02-07T01:44:59.794Z,17.57
2019-02-07T01:47:27.802Z,6.75
2019-02-07T01:49:55.770Z,19.25
2019-02-07T01:52:23.780Z,15.78
2019-02-07T01:54:51.888Z,14.50
2019-02-07T01:57:19.916Z,16.65
2019-02-07T01:59:47.917Z,21.02
2019-02-07T02:02:15.914Z,17.57
2019-02-07T02:04:43.934Z,21.70
2019-02-07T02:07:11.938Z,16.15
2019-02-07T02:09:39.933Z,17.45
2019-02-07T02:12:07.926Z,15.72
2019-02-07T02:14:36.245Z,12.43
2019-02-07T02:17:04.292Z,20.82
2019-02-07T02:19:32.327Z,22.00
2019-02-07T02:22:00.300Z,21.87
2019-02-07T02:24:28.268Z,17.02
2019-02-07T02:26:56.293Z,25.35
2019-02-07T02:29:24.285Z,20.37
2019-02-07T02:31:54.053Z,19.75
2019-02-07T02:34:22.133Z,21.57
2019-02-07T02:36:50.163Z,17.02
2019-02-07T02:39:18.143Z,16.02
2019-02-07T02:41:46.165Z,16.73
2019-02-07T02:44:14.159Z,17.30
2019-02-07T02:46:42.204Z,23.55
2019-02-07T02:49:10.427Z,19.60
2019-02-07T02:51:38.463Z,22.85
2019-02-07T02:54:09.670Z,18.92
2019-02-07T02:56:37.642Z,16.30
2019-02-07T02:59:05.692Z,18.25
2019-02-07T03:01:44.744Z,16.95
2019-02-07T03:04:21.367Z,23.15
2019-02-07T03:07:07.000Z,19.92
2019-02-07T03:09:59.752Z,19.05
2019-02-07T03:12:42.309Z,14.60
2019-02-07T03:15:30.224Z,14.38
2019-02-07T03:18:23.729Z,17.75
2019-02-07T03:21:19.962Z,16.65
2019-02-07T03:24:21.900Z,19.17
2019-02-07T03:26:58.461Z,18.75
2019-02-07T03:29:45.459Z,19.02
2019-02-07T03:32:32.509Z,19.87
2019-02-07T03:35:22.683Z,19.70
2019-02-07T03:38:08.405Z,19.25
2019-02-07T03:41:13.743Z,14.55
2019-02-07T03:43:57.590Z,18.15
2019-02-07T03:46:45.883Z,22.70
2019-02-07T03:49:31.213Z,20.50
2019-02-07T03:52:36.708Z,18.50
2019-02-07T03:55:23.855Z,18.40
2019-02-07T03:58:09.363Z,16.45
2019-02-07T04:01:03.832Z,17.25
2019-02-07T04:03:53.567Z,21.33
2019-02-07T04:06:46.559Z,21.25
2019-02-07T04:09:36.548Z,18.67
2019-02-07T04:12:26.612Z,23.47
2019-02-07T04:15:16.584Z,22.00
2019-02-07T04:18:21.770Z,21.82
2019-02-07T04:21:14.540Z,26.05
2019-02-07T04:24:04.536Z,19.98
2019-02-07T04:26:51.522Z,20.33
2019-02-07T04:29:36.435Z,20.75
2019-02-07T04:32:29.319Z,23.70
2019-02-07T04:35:16.273Z,27.32
2019-02-07T04:38:09.250Z,22.15
2019-02-07T04:41:02.711Z,23.65
2019-02-07T04:43:55.564Z,25.45
2019-02-07T04:46:41.339Z,21.35
2019-02-07T04:49:27.512Z,19.82
2019-02-07T04:52:16.215Z,25.05
2019-02-07T04:55:12.235Z,19.85
2019-02-07T04:58:17.647Z,18.35
2019-02-07T05:01:03.120Z,18.62
2019-02-07T05:03:52.926Z,17.65
2019-02-07T05:06:40.841Z,21.48
2019-02-07T05:09:30.554Z,22.30
2019-02-07T05:12:16.794Z,23.90
2019-02-07T05:15:18.889Z,21.77
2019-02-07T05:17:57.908Z,18.98
2019-02-07T05:20:43.654Z,19.10
2019-02-07T05:23:29.292Z,16.85
2019-02-07T05:26:16.247Z,22.55
2019-02-07T05:29:02.093Z,18.95
2019-02-07T05:31:55.164Z,19.57
2019-02-07T05:34:51.708Z,18.12
2019-02-07T05:37:57.122Z,23.65
2019-02-07T05:40:36.196Z,19.25
2019-02-07T05:43:20.980Z,23.15
2019-02-07T05:46:07.916Z,19.73
2019-02-07T05:48:53.751Z,18.10
2019-02-07T05:51:39.158Z,24.55
2019-02-07T05:54:37.993Z,20.15
2019-02-07T05:57:25.023Z,23.30
2019-02-07T06:00:17.525Z,24.87
2019-02-07T06:03:03.438Z,18.15
2019-02-07T06:05:51.415Z,18.87
2019-02-07T06:08:28.716Z,22.15
2019-02-07T06:11:15.627Z,13.95
2019-02-07T06:14:08.678Z,25.12
2019-02-07T06:17:02.197Z,22.37
2019-02-07T06:19:45.755Z,26.30
2019-02-07T06:22:38.594Z,25.15
2019-02-07T06:25:18.905Z,21.50
2019-02-07T06:28:08.881Z,25.32
2019-02-07T06:31:07.792Z,20.95
2019-02-07T06:33:57.965Z,31.75
2019-02-07T06:36:35.868Z,24.20
2019-02-07T06:39:28.559Z,23.73
2019-02-07T06:42:06.397Z,13.35
2019-02-07T06:44:56.092Z,23.77
2019-02-07T06:47:43.014Z,21.90
2019-02-07T06:50:23.918Z,27.80
2019-02-07T06:53:11.361Z,20.45
2019-02-07T06:55:56.850Z,22.32
2019-02-07T06:58:48.854Z,23.52
2019-02-07T07:01:38.873Z,18.05
2019-02-07T07:04:24.659Z,21.17
2019-02-07T07:07:11.655Z,30.00
2019-02-07T07:09:55.763Z,24.65
2019-02-07T07:12:42.793Z,18.60
2019-02-07T07:15:19.201Z,14.55
2019-02-07T07:17:55.853Z,22.90
2019-02-07T07:20:43.117Z,22.32
2019-02-07T07:23:40.765Z,23.22
2019-02-07T07:26:26.546Z,24.52
2019-02-07T07:29:10.594Z,27.50
2019-02-07T07:31:56.664Z,23.92
2019-02-07T07:34:43.671Z,25.17
2019-02-07T07:37:27.324Z,28.80
2019-02-07T07:40:20.360Z,26.23
2019-02-07T07:43:05.812Z,25.12
2019-02-07T07:46:10.854Z,28.75
2019-02-07T07:48:50.946Z,21.48
2019-02-07T07:51:37.908Z,7.90
2019-02-07T07:54:31.045Z,24.32
2019-02-07T07:57:20.222Z,20.10
2019-02-07T08:00:06.102Z,27.77
2019-02-07T08:03:02.036Z,24.57
2019-02-07T08:05:36.712Z,18.10
2019-02-07T08:08:27.767Z,20.10
2019-02-07T08:11:07.026Z,21.65
2019-02-07T08:13:53.129Z,14.15
2019-02-07T08:16:55.267Z,22.00
2019-02-07T08:19:40.996Z,19.55
2019-02-07T08:22:36.970Z,19.65
2019-02-07T08:25:54.127Z,27.05
2019-02-07T08:28:56.148Z,13.62
2019-02-07T08:32:01.209Z,18.00
2019-02-07T08:34:48.189Z,20.23
2019-02-07T08:37:34.173Z,18.55
2019-02-07T08:40:19.296Z,24.02
2019-02-07T08:43:09.331Z,21.42
2019-02-07T08:45:56.299Z,20.50
2019-02-07T08:48:43.213Z,21.85
2019-02-07T08:51:30.863Z,21.80
2019-02-07T08:54:36.190Z,18.62
2019-02-07T08:57:19.796Z,19.85
2019-02-07T09:00:18.816Z,22.58
2019-02-07T09:03:04.453Z,20.80
2019-02-07T09:05:52.060Z,26.62
2019-02-07T09:08:47.845Z,19.62
2019-02-07T09:11:33.808Z,28.90
2019-02-07T09:14:29.868Z,23.83
2019-02-07T09:17:17.200Z,13.45
2019-02-07T09:20:04.207Z,21.02
2019-02-07T09:22:49.651Z,23.95
2019-02-07T09:25:39.743Z,26.80
2019-02-07T09:28:25.631Z,24.60
2019-02-07T09:31:10.569Z,23.05
2019-02-07T09:34:03.232Z,19.23
2019-02-07T09:36:41.993Z,19.10
2019-02-07T09:39:28.969Z,26.07
2019-02-07T09:42:14.543Z,18.20
2019-02-07T09:44:58.409Z,24.87
2019-02-07T09:47:46.628Z,23.50
2019-02-07T09:50:28.915Z,24.53
2019-02-07T09:53:24.001Z,30.55
2019-02-07T09:56:06.773Z,25.97
2019-02-07T09:58:52.617Z,20.40
2019-02-07T10:01:38.382Z,26.62
2019-02-07T10:04:28.596Z,23.55
2019-02-07T10:07:14.158Z,25.92
2019-02-07T10:10:00.096Z,24.72
2019-02-07T10:12:45.732Z,21.45
2019-02-07T10:15:31.254Z,26.37
2019-02-07T10:18:15.292Z,18.02
2019-02-07T10:21:00.651Z,27.20
2019-02-07T10:23:56.886Z,23.32
2019-02-07T10:26:35.564Z,22.13
2019-02-07T10:29:21.126Z,19.62
2019-02-07T10:32:26.353Z,16.73
2019-02-07T10:35:22.647Z,22.55
2019-02-07T10:38:01.979Z,24.55
2019-02-07T10:40:43.751Z,26.27
2019-02-07T10:43:29.531Z,29.75
2019-02-07T10:46:23.473Z,24.92
2019-02-07T10:49:22.637Z,29.87
2019-02-07T10:52:10.540Z,19.85
2019-02-07T10:55:03.308Z,26.73
2019-02-07T10:57:51.538Z,23.83
2019-02-07T11:00:37.993Z,20.92
2019-02-07T11:03:25.060Z,16.35
2019-02-07T11:06:10.752Z,27.98
2019-02-07T11:08:57.226Z,26.07
2019-02-07T11:11:45.994Z,23.92
2019-02-07T11:14:42.188Z,24.63
2019-02-07T11:17:27.711Z,20.52
2019-02-07T11:20:17.744Z,23.38
2019-02-07T11:23:06.740Z,25.25
2019-02-07T11:25:52.607Z,20.97
2019-02-07T11:28:45.705Z,22.25
2019-02-07T11:31:32.971Z,21.42
2019-02-07T11:34:10.603Z,14.40
2019-02-07T11:36:57.134Z,22.07
2019-02-07T11:39:44.131Z,18.40
2019-02-07T11:42:31.152Z,9.50
2019-02-07T11:45:17.989Z,22.87
2019-02-07T11:48:10.874Z,16.45
2019-02-07T11:51:01.955Z,19.82
2019-02-07T11:53:43.417Z,20.60
2019-02-07T11:56:36.697Z,18.42
2019-02-07T11:59:12.915Z,18.75
2019-02-07T12:02:09.536Z,15.68
2019-02-07T12:04:47.870Z,18.12
2019-02-07T12:07:33.622Z,20.40
2019-02-07T12:10:23.504Z,16.17
2019-02-07T12:13:03.721Z,13.93
2019-02-07T12:16:00.236Z,15.83
2019-02-07T12:18:50.298Z,14.33
2019-02-07T12:21:49.154Z,17.77
2019-02-07T12:24:34.838Z,13.00
2019-02-07T12:27:20.494Z,12.15
2019-02-07T12:30:10.720Z,13.60
2019-02-07T12:32:44.443Z,14.85
2019-02-07T12:35:43.197Z,13.08
2019-02-07T12:38:30.808Z,14.05
2019-02-07T12:41:17.761Z,16.82
2019-02-07T12:44:07.804Z,15.50
2019-02-07T12:46:53.325Z,13.80
2019-02-07T12:49:49.708Z,14.93
2019-02-07T12:52:28.997Z,13.32
2019-02-07T12:55:16.389Z,12.18
2019-02-07T12:58:14.271Z,11.85
2019-02-07T13:01:13.864Z,12.18
2019-02-07T13:04:01.836Z,15.13
2019-02-07T13:06:47.400Z,15.45
2019-02-07T13:09:33.546Z,11.30
2019-02-07T13:12:24.284Z,9.53
2019-02-07T13:17:56.334Z,11.15
2019-02-07T13:20:36.659Z,10.00
2019-02-07T13:23:39.258Z,11.55
2019-02-07T13:26:26.291Z,13.93
2019-02-07T13:29:13.357Z,9.25
2019-02-07T13:32:09.657Z,9.80
2019-02-07T13:34:55.531Z,10.08
2019-02-07T13:37:41.642Z,13.03
2019-02-07T13:40:29.266Z,11.97
2019-02-07T13:43:31.368Z,11.35
2019-02-07T13:46:24.143Z,14.53
2019-02-07T13:49:15.569Z,12.58
2019-02-07T13:52:02.581Z,14.28
2019-02-07T13:54:36.952Z,11.97
2019-02-07T13:57:24.990Z,14.68
2019-02-07T14:00:26.927Z,10.75
2019-02-07T14:03:09.773Z,13.03
2019-02-07T14:05:56.822Z,20.68
2019-02-07T14:08:52.785Z,11.97
2019-02-07T14:11:42.823Z,9.20
2019-02-07T14:14:38.955Z,13.28
2019-02-07T14:17:37.954Z,16.12
2019-02-07T14:20:26.280Z,19.35
2019-02-07T14:23:06.878Z,13.38
2019-02-07T14:26:00.362Z,17.05
2019-02-07T14:28:38.842Z,21.27
2019-02-07T14:31:32.010Z,15.18
2019-02-07T14:34:17.788Z,15.13
2019-02-07T14:37:13.841Z,15.80
2019-02-07T14:39:59.260Z,18.00
2019-02-07T14:42:46.263Z,13.55
2019-02-07T14:45:32.229Z,16.57
2019-02-07T14:48:00.387Z,17.23
2019-02-07T14:50:28.629Z,22.80
2019-02-07T14:52:56.662Z,18.98
2019-02-07T14:55:24.960Z,20.97
2019-02-07T14:57:52.990Z,15.90
2019-02-07T15:00:22.883Z,18.27
2019-02-07T15:02:50.943Z,15.68
2019-02-07T15:05:19.047Z,21.50
2019-02-07T15:07:47.061Z,24.18
2019-02-07T15:10:16.745Z,23.70
2019-02-07T15:12:44.773Z,21.27
2019-02-07T15:15:13.911Z,20.25
2019-02-07T15:17:41.922Z,27.67
2019-02-07T15:20:10.092Z,21.95
2019-02-07T15:22:38.172Z,24.23
2019-02-07T15:25:06.668Z,19.98
2019-02-07T15:27:35.170Z,20.65
2019-02-07T15:30:03.219Z,15.85
2019-02-07T15:32:31.801Z,15.93
2019-02-07T15:34:59.792Z,15.10
2019-02-07T15:37:27.906Z,17.80
2019-02-07T15:39:56.022Z,20.10
2019-02-07T15:42:24.273Z,19.62
2019-02-07T15:44:52.740Z,18.32
2019-02-07T15:47:20.870Z,15.63
2019-02-07T15:49:49.024Z,25.35
2019-02-07T15:52:17.164Z,19.70
2019-02-07T15:54:45.270Z,18.82
2019-02-07T15:57:13.298Z,25.85
2019-02-07T15:59:53.320Z,15.60
2019-02-07T16:02:35.461Z,16.97
2019-02-07T16:05:04.203Z,17.75
2019-02-07T16:07:32.321Z,17.67
2019-02-07T16:10:00.451Z,18.87
2019-02-07T16:12:29.021Z,22.25
2019-02-07T16:14:57.245Z,16.62
2019-02-07T16:17:25.820Z,22.02
2019-02-07T16:19:53.972Z,24.55
2019-02-07T16:22:22.686Z,21.37
2019-02-07T16:24:50.813Z,27.50
2019-02-07T16:27:19.441Z,24.87
2019-02-07T16:29:47.595Z,18.30
2019-02-07T16:32:15.720Z,17.42
2019-02-07T16:34:44.805Z,19.92
2019-02-07T16:37:13.416Z,20.65
2019-02-07T16:39:41.994Z,16.48
2019-02-07T16:42:10.244Z,15.88
2019-02-07T16:44:38.392Z,23.12
2019-02-07T16:47:06.586Z,25.80
2019-02-07T16:49:34.973Z,16.02
2019-02-07T16:52:03.287Z,18.05
2019-02-07T16:54:31.444Z,18.65
2019-02-07T16:56:59.650Z,17.57
2019-02-07T16:59:28.170Z,18.98
2019-02-07T17:01:56.404Z,12.30
2019-02-07T17:04:24.579Z,18.05
2019-02-07T17:06:52.742Z,23.27
2019-02-07T17:09:30.545Z,12.70
2019-02-07T17:12:00.921Z,15.68
2019-02-07T17:14:29.170Z,21.17
2019-02-07T17:16:57.647Z,22.25
2019-02-07T17:19:26.327Z,14.13
2019-02-07T17:21:54.491Z,18.40
2019-02-07T17:24:22.970Z,15.75
2019-02-07T17:26:51.637Z,6.70
2019-02-07T17:29:20.291Z,17.35
2019-02-07T17:31:48.836Z,18.45
2019-02-07T17:34:17.316Z,18.77
2019-02-07T17:36:45.570Z,17.35
2019-02-07T17:39:13.748Z,20.02
2019-02-07T17:41:42.031Z,14.55
2019-02-07T17:44:10.223Z,21.65
2019-02-07T17:46:38.858Z,16.97
2019-02-07T17:49:07.060Z,19.87
2019-02-07T17:51:35.175Z,14.68
2019-02-07T17:54:03.698Z,17.15
2019-02-07T17:56:31.993Z,12.15
2019-02-07T17:59:00.087Z,14.58
2019-02-07T18:01:28.212Z,25.92
2019-02-07T18:03:56.349Z,18.35
2019-02-07T18:06:24.523Z,15.58
2019-02-07T18:08:52.692Z,15.00
2019-02-07T18:11:20.778Z,14.20
2019-02-07T18:13:49.026Z,13.88
2019-02-07T18:16:17.547Z,19.10
2019-02-07T18:18:46.243Z,17.98
2019-02-07T18:21:15.515Z,19.02
2019-02-07T18:23:43.621Z,17.85
2019-02-07T18:26:11.874Z,15.63
2019-02-07T18:28:40.115Z,19.32
2019-02-07T18:31:08.538Z,19.65
2019-02-07T18:33:37.155Z,13.98
2019-02-07T18:36:06.173Z,11.20
2019-02-07T18:38:34.869Z,14.45
2019-02-07T18:41:03.689Z,16.65
2019-02-07T18:43:32.351Z,12.05
2019-02-07T18:46:00.685Z,20.35
2019-02-07T18:48:30.089Z,17.02
2019-02-07T18:50:58.320Z,15.85
2019-02-07T18:53:27.108Z,9.10
2019-02-07T18:55:56.586Z,17.42
2019-02-07T18:58:25.628Z,13.35
2019-02-07T19:00:54.825Z,13.48
2019-02-07T19:03:23.182Z,23.00
2019-02-07T19:05:51.694Z,10.38
2019-02-07T19:08:21.065Z,19.15
2019-02-07T19:10:49.878Z,22.58
2019-02-07T19:13:19.052Z,16.20
2019-02-07T19:15:57.993Z,11.53
2019-02-07T19:18:26.800Z,12.88
2019-02-07T19:20:55.822Z,11.97
2019-02-07T19:23:24.847Z,15.00
2019-02-07T19:25:53.721Z,21.50
2019-02-07T19:28:22.644Z,12.80
2019-02-07T19:30:51.444Z,13.50
2019-02-07T19:33:22.447Z,17.12
2019-02-07T19:35:51.015Z,16.23
2019-02-07T19:38:20.363Z,15.25
2019-02-07T19:40:49.452Z,16.97
2019-02-07T19:43:18.719Z,16.37
2019-02-07T19:45:48.101Z,13.80
2019-02-07T19:48:17.146Z,20.40
2019-02-07T19:50:46.731Z,17.48
2019-02-07T19:53:15.763Z,22.52
2019-02-07T19:55:45.157Z,22.27
2019-02-07T19:58:14.578Z,35.08
2019-02-07T20:00:43.636Z,23.50
2019-02-07T20:03:12.718Z,14.15
2019-02-07T20:05:41.811Z,10.55
2019-02-07T20:08:10.344Z,13.05
2019-02-07T20:10:39.564Z,23.45
2019-02-07T20:13:09.550Z,25.97
2019-02-07T20:15:40.507Z,21.48
2019-02-07T20:18:10.807Z,8.33
2019-02-07T20:20:40.238Z,14.20
2019-02-07T20:23:08.893Z,10.55
2019-02-07T20:25:38.493Z,12.30
2019-02-07T20:28:07.337Z,8.83
2019-02-07T20:30:38.450Z,8.05
2019-02-07T20:33:08.837Z,13.15
2019-02-07T20:35:38.222Z,7.33
2019-02-07T20:38:07.787Z,12.65
2019-02-07T20:40:37.075Z,12.30
2019-02-07T20:43:05.945Z,22.65
2019-02-07T20:45:35.124Z,10.18
2019-02-07T20:48:04.630Z,7.45
2019-02-07T20:50:33.551Z,12.70
2019-02-07T20:53:02.024Z,6.53
2019-02-07T20:55:31.138Z,9.85
2019-02-07T20:58:00.215Z,8.30
2019-02-07T21:00:33.275Z,7.20
2019-02-07T21:03:02.367Z,11.90
2019-02-07T21:05:31.623Z,12.68
2019-02-07T21:08:00.495Z,3.08
2019-02-07T21:10:31.053Z,11.20
2019-02-07T21:12:59.802Z,5.28
2019-02-07T21:15:33.315Z,6.78
2019-02-07T21:18:01.998Z,3.92
2019-02-07T21:20:31.111Z,7.78
2019-02-07T21:23:00.458Z,5.70
2019-02-07T21:25:48.865Z,13.60
2019-02-07T21:28:17.666Z,10.90
2019-02-07T21:30:46.272Z,9.98
2019-02-07T21:33:14.803Z,3.77
2019-02-07T21:35:43.718Z,2.92
2019-02-07T21:38:12.570Z,10.05
2019-02-07T21:40:41.584Z,8.55
2019-02-07T21:43:11.054Z,5.22
2019-02-07T21:45:39.677Z,6.58
2019-02-07T21:48:10.530Z,6.80
2019-02-07T21:50:39.337Z,4.92
2019-02-07T21:53:08.511Z,4.00
2019-02-07T21:55:36.849Z,4.80
2019-02-07T21:58:05.347Z,5.20
2019-02-07T22:00:36.163Z,5.00
2019-02-07T22:03:04.946Z,2.90
2019-02-07T22:05:33.768Z,7.10
2019-02-07T22:08:02.271Z,13.98
2019-02-07T22:10:30.792Z,3.00
2019-02-07T22:12:59.481Z,4.83
2019-02-07T22:15:29.558Z,4.58
2019-02-07T22:17:57.615Z,2.95
2019-02-07T22:20:26.152Z,6.35
2019-02-07T22:22:54.341Z,8.43
2019-02-07T22:25:22.507Z,5.33
2019-02-07T22:27:50.550Z,13.03
2019-02-07T22:30:24.143Z,4.67
2019-02-07T22:32:52.082Z,13.30
2019-02-07T22:35:20.148Z,5.20
2019-02-07T22:37:48.174Z,7.28
2019-02-07T22:40:18.214Z,8.53
2019-02-07T22:42:47.931Z,7.75
2019-02-07T22:45:16.515Z,4.80
2019-02-07T22:47:44.925Z,7.60
2019-02-07T22:50:16.052Z,3.05
2019-02-07T22:52:44.119Z,4.10
2019-02-07T22:55:12.191Z,6.08
2019-02-07T22:57:40.605Z,4.92
2019-02-07T23:01:00.495Z,6.78
2019-02-07T23:03:28.489Z,9.48
2019-02-07T23:05:56.550Z,5.45
2019-02-07T23:08:26.280Z,2.87
2019-02-07T23:10:54.270Z,6.20
2019-02-07T23:13:22.270Z,6.42
2019-02-07T23:15:50.312Z,4.65
2019-02-07T23:18:18.360Z,5.15
2019-02-07T23:20:46.356Z,5.70
2019-02-07T23:23:14.406Z,7.35
2019-02-07T23:25:42.706Z,6.42
2019-02-07T23:28:10.706Z,9.48
2019-02-07T23:30:38.710Z,3.98
2019-02-07T23:33:06.809Z,10.25
2019-02-07T23:35:34.850Z,7.22
2019-02-07T23:38:02.877Z,2.30
2019-02-07T23:40:30.906Z,6.80
2019-02-07T23:42:59.228Z,5.00
2019-02-07T23:45:27.233Z,2.83
2019-02-07T23:47:55.218Z,7.03
2019-02-07T23:50:23.283Z,3.83
2019-02-07T23:52:51.326Z,6.95
2019-02-07T23:55:19.335Z,4.58
2019-02-07T23:57:47.519Z,7.00
